Time;durP1;ratioP1;P1;durP2;ratioP2;P2;SDS_P1;SDS_P2;PMS_P1;PMS_P2;Temp;Humidity;BMP_temperature;BMP_pressure;BME280_temperature;BME280_humidity;BME280_pressure;Samples;Min_cycle;Max_cycle;Signal;HPM_P1;HPM_P2
2023/03/17 00:01:50;;;;;;;9.50;9.20;;;3.80;99.90;;;;;;5122137;27;20217;-86
2023/03/17 00:04:19;;;;;;;9.60;9.30;;;3.80;99.90;;;;;;5112385;28;20287;-86
2023/03/17 00:06:49;;;;;;;9.50;9.20;;;3.70;99.90;;;;;;5105232;28;20231;-86
2023/03/17 00:09:27;;;;;;;9.53;9.23;;;3.70;99.90;;;;;;5104932;28;20244;-87
2023/03/17 00:11:56;;;;;;;9.70;9.40;;;3.80;99.90;;;;;;5105291;28;20213;-87
2023/03/17 00:14:26;;;;;;;9.63;9.33;;;3.70;99.90;;;;;;5104453;28;20234;-86
2023/03/17 00:16:55;;;;;;;9.67;9.37;;;3.80;99.90;;;;;;5104744;28;20301;-87
2023/03/17 00:22:22;;;;;;;9.47;9.17;;;3.70;99.90;;;;;;5104643;28;20312;-86
2023/03/17 00:24:55;;;;;;;9.50;9.20;;;3.70;99.90;;;;;;5108713;28;20224;-87
2023/03/17 00:27:30;;;;;;;9.50;9.20;;;3.70;99.90;;;;;;5116085;28;20373;-87
2023/03/17 00:29:58;;;;;;;9.53;9.23;;;3.60;99.90;;;;;;5106267;28;20249;-87
2023/03/17 00:32:27;;;;;;;9.60;9.30;;;3.60;99.90;;;;;;5105230;28;20279;-86
2023/03/17 00:34:56;;;;;;;9.60;9.30;;;3.60;99.90;;;;;;5104614;28;20245;-86
2023/03/17 00:37:26;;;;;;;9.43;9.13;;;3.60;99.90;;;;;;5103439;28;20230;-86
2023/03/17 00:40:04;;;;;;;9.60;9.30;;;3.50;99.90;;;;;;5103189;28;20778;-85
2023/03/17 00:42:34;;;;;;;9.40;9.10;;;3.50;99.90;;;;;;5102531;28;20229;-85
2023/03/17 00:45:03;;;;;;;9.40;9.10;;;3.50;99.90;;;;;;5103315;28;20225;-85
2023/03/17 00:47:32;;;;;;;9.40;9.10;;;3.50;99.90;;;;;;5102606;28;20279;-86
2023/03/17 00:50:03;;;;;;;9.23;8.93;;;3.50;99.90;;;;;;5102675;28;20312;-86
2023/03/17 00:52:37;;;;;;;9.23;8.93;;;3.50;99.90;;;;;;5101688;28;20242;-85
2023/03/17 00:55:13;;;;;;;9.23;8.93;;;3.60;99.90;;;;;;5128444;22;20249;-84
2023/03/17 00:57:42;;;;;;;9.40;9.10;;;3.50;99.90;;;;;;5108112;28;20240;-84
2023/03/17 01:00:28;;;;;;;9.43;9.13;;;3.50;99.90;;;;;;5089746;28;20261;-83
2023/03/17 01:02:57;;;;;;;9.30;9.00;;;3.50;99.90;;;;;;5091665;28;20237;-84
2023/03/17 01:05:26;;;;;;;9.33;9.03;;;3.50;99.90;;;;;;5108681;28;20232;-84
2023/03/17 01:07:57;;;;;;;8.90;8.70;;;3.50;99.90;;;;;;5109392;28;20229;-84
2023/03/17 01:10:33;;;;;;;9.17;8.87;;;3.50;99.90;;;;;;5108514;28;20230;-84
2023/03/17 01:13:02;;;;;;;9.27;8.97;;;3.60;99.90;;;;;;5109162;28;20276;-84
2023/03/17 01:15:32;;;;;;;9.40;9.10;;;3.50;99.90;;;;;;5107972;28;20303;-85
2023/03/17 01:18:01;;;;;;;9.30;9.00;;;3.50;99.90;;;;;;5107075;28;20272;-84
2023/03/17 01:20:33;;;;;;;9.20;8.90;;;3.50;99.90;;;;;;5104947;28;20225;-84
2023/03/17 01:23:02;;;;;;;9.10;8.80;;;3.50;99.90;;;;;;5108201;28;20229;-84
2023/03/17 01:25:32;;;;;;;9.13;8.83;;;3.60;99.90;;;;;;5108120;28;20233;-84
2023/03/17 01:28:00;;;;;;;9.20;8.90;;;3.60;99.90;;;;;;5107991;28;20237;-84
2023/03/17 01:30:37;;;;;;;9.37;9.07;;;3.60;99.90;;;;;;5108245;28;20248;-84
2023/03/17 01:33:07;;;;;;;8.90;8.70;;;3.60;99.90;;;;;;5107747;28;20221;-83
2023/03/17 01:35:37;;;;;;;9.20;8.90;;;3.60;99.90;;;;;;5108266;28;20256;-84
2023/03/17 01:38:05;;;;;;;9.33;9.03;;;3.60;99.90;;;;;;5108282;28;20221;-83
2023/03/17 01:40:44;;;;;;;9.23;8.93;;;3.60;99.90;;;;;;5108324;28;20277;-84
2023/03/17 01:43:22;;;;;;;9.20;8.90;;;3.60;99.90;;;;;;5107633;28;20209;-84
2023/03/17 01:46:28;;;;;;;9.30;9.00;;;3.60;99.90;;;;;;5073291;28;20242;-84
2023/03/17 01:49:16;;;;;;;9.00;8.80;;;3.50;99.90;;;;;;5107444;28;20253;-84
2023/03/17 01:52:00;;;;;;;8.93;8.73;;;3.50;99.90;;;;;;5108522;28;20281;-84
2023/03/17 01:54:39;;;;;;;9.30;9.00;;;3.50;99.90;;;;;;5107018;28;20272;-84
2023/03/17 01:57:17;;;;;;;8.90;8.70;;;3.50;99.90;;;;;;5106168;28;20237;-84
2023/03/17 01:59:55;;;;;;;8.80;8.60;;;3.40;99.90;;;;;;5088268;28;20249;-83
2023/03/17 02:02:36;;;;;;;9.03;8.83;;;3.50;99.90;;;;;;5088612;28;20228;-83
2023/03/17 02:05:08;;;;;;;9.20;8.90;;;3.50;99.90;;;;;;5089012;28;20222;-83
2023/03/17 02:07:37;;;;;;;9.07;8.80;;;3.50;99.90;;;;;;5097006;28;20230;-83
2023/03/17 02:10:07;;;;;;;9.10;8.83;;;3.50;99.90;;;;;;5108675;28;20248;-83
2023/03/17 02:12:45;;;;;;;9.13;8.83;;;3.50;99.90;;;;;;5108002;28;20229;-84
2023/03/17 02:15:13;;;;;;;9.07;8.87;;;3.60;99.90;;;;;;5108573;28;20217;-83
2023/03/17 02:17:41;;;;;;;8.60;8.40;;;3.60;99.90;;;;;;5108798;28;20232;-84
2023/03/17 02:21:30;;;;;;;9.20;8.90;;;3.60;99.90;;;;;;5109043;28;20227;-84
2023/03/17 02:24:00;;;;;;;9.33;9.03;;;3.60;99.90;;;;;;5107275;28;20217;-84
2023/03/17 02:26:31;;;;;;;9.07;8.80;;;3.60;99.90;;;;;;5107859;28;20229;-83
2023/03/17 02:28:59;;;;;;;9.17;8.87;;;3.50;99.90;;;;;;5112604;28;20305;-84
2023/03/17 02:31:27;;;;;;;9.07;8.80;;;3.50;99.90;;;;;;5112877;28;20256;-83
2023/03/17 02:33:56;;;;;;;9.20;8.90;;;3.50;99.90;;;;;;5114533;28;20217;-83
2023/03/17 02:36:29;;;;;;;9.13;8.83;;;3.60;99.90;;;;;;5122490;28;20218;-83
2023/03/17 02:38:58;;;;;;;9.00;8.80;;;3.50;99.90;;;;;;5118805;28;20225;-83
2023/03/17 02:41:26;;;;;;;8.90;8.70;;;3.50;99.90;;;;;;5111482;28;20238;-83
2023/03/17 02:43:55;;;;;;;9.03;8.80;;;3.40;99.90;;;;;;5111077;28;20226;-84
2023/03/17 02:46:24;;;;;;;9.23;8.93;;;3.50;99.90;;;;;;5110393;28;20221;-84
2023/03/17 02:48:53;;;;;;;9.20;8.90;;;3.50;99.90;;;;;;5106429;28;20252;-84
2023/03/17 02:51:22;;;;;;;8.90;8.70;;;3.50;99.90;;;;;;5087701;28;20229;-84
2023/03/17 02:54:00;;;;;;;8.97;8.77;;;3.50;99.90;;;;;;5107924;28;20264;-84
2023/03/17 02:56:30;;;;;;;9.17;8.87;;;3.50;99.90;;;;;;5111162;28;20284;-84
2023/03/17 02:58:59;;;;;;;9.30;9.00;;;3.50;99.90;;;;;;5121690;28;20228;-84
2023/03/17 03:01:29;;;;;;;9.20;8.90;;;3.50;99.90;;;;;;5112691;28;20316;-84
2023/03/17 03:03:59;;;;;;;9.30;9.00;;;3.50;99.90;;;;;;5111978;28;20231;-83
2023/03/17 03:06:28;;;;;;;9.40;9.10;;;3.40;99.90;;;;;;5112516;28;20281;-84
2023/03/17 03:09:01;;;;;;;9.30;9.00;;;3.40;99.90;;;;;;5111419;28;20663;-84
2023/03/17 03:11:29;;;;;;;9.20;8.90;;;3.40;99.90;;;;;;5115076;28;20243;-84
2023/03/17 03:13:57;;;;;;;9.37;9.07;;;3.40;99.90;;;;;;5113104;28;20229;-84
2023/03/17 03:16:26;;;;;;;9.13;8.87;;;3.40;99.90;;;;;;5110786;28;20257;-83
2023/03/17 03:18:55;;;;;;;9.30;9.00;;;3.40;99.90;;;;;;5113688;28;20225;-80
2023/03/17 03:21:25;;;;;;;9.20;8.90;;;3.50;99.90;;;;;;5122529;28;20225;-81
2023/03/17 03:23:54;;;;;;;9.20;8.90;;;3.50;99.90;;;;;;5111781;28;20244;-84
2023/03/17 03:29:11;;;;;;;9.40;9.10;;;3.50;99.90;;;;;;5107779;28;20284;-84
2023/03/17 03:31:40;;;;;;;9.30;9.00;;;3.50;99.90;;;;;;5112202;28;20237;-84
2023/03/17 03:34:09;;;;;;;9.10;8.80;;;3.40;99.90;;;;;;5110607;28;20243;-84
2023/03/17 03:36:38;;;;;;;9.20;8.90;;;3.40;99.90;;;;;;5112104;28;20225;-84
2023/03/17 03:39:08;;;;;;;9.40;9.10;;;3.40;99.90;;;;;;5109343;28;20233;-84
2023/03/17 03:41:40;;;;;;;9.03;8.80;;;3.30;99.90;;;;;;5108683;28;20253;-84
2023/03/17 03:44:07;;;;;;;9.30;9.00;;;3.30;99.90;;;;;;5106546;28;21175;-84
2023/03/17 03:46:36;;;;;;;9.20;8.90;;;3.30;99.90;;;;;;5108242;28;20310;-84
2023/03/17 03:49:06;;;;;;;9.20;8.90;;;3.20;99.90;;;;;;5108778;28;20328;-85
2023/03/17 03:51:35;;;;;;;9.30;9.00;;;3.20;99.90;;;;;;5108848;28;20737;-83
2023/03/17 03:54:05;;;;;;;8.90;8.70;;;3.20;99.90;;;;;;5107026;28;20253;-84
2023/03/17 03:56:34;;;;;;;9.10;8.80;;;3.20;99.90;;;;;;5105709;28;20237;-83
2023/03/17 03:59:05;;;;;;;9.20;8.90;;;3.20;99.90;;;;;;5108245;28;20236;-84
2023/03/17 04:01:33;;;;;;;8.90;8.70;;;3.20;99.90;;;;;;5107462;28;20231;-84
2023/03/17 04:04:05;;;;;;;9.00;8.80;;;3.20;99.90;;;;;;5108108;28;20225;-84
2023/03/17 04:06:34;;;;;;;9.00;8.80;;;3.20;99.90;;;;;;5107660;28;20289;-84
2023/03/17 04:09:04;;;;;;;8.90;8.70;;;3.30;99.90;;;;;;5117485;28;20224;-82
2023/03/17 04:11:33;;;;;;;8.87;8.67;;;3.30;99.90;;;;;;5118746;28;20233;-84
2023/03/17 04:14:05;;;;;;;9.10;8.80;;;3.30;99.90;;;;;;5108215;28;20240;-84
2023/03/17 04:16:33;;;;;;;9.17;8.87;;;3.30;99.90;;;;;;5108470;28;20277;-84
2023/03/17 04:19:01;;;;;;;9.30;9.00;;;3.30;99.90;;;;;;5108316;28;20234;-84
2023/03/17 04:21:30;;;;;;;8.90;8.70;;;3.30;99.90;;;;;;5107779;28;20267;-84
2023/03/17 04:24:00;;;;;;;9.30;9.00;;;3.20;99.90;;;;;;5108557;28;20236;-84
2023/03/17 04:26:29;;;;;;;9.30;9.00;;;3.10;99.90;;;;;;5107707;28;20286;-84
2023/03/17 04:28:59;;;;;;;9.30;9.00;;;3.00;99.90;;;;;;5107917;28;20268;-84
2023/03/17 04:31:31;;;;;;;8.90;8.70;;;3.10;99.90;;;;;;5107936;28;20280;-84
2023/03/17 04:33:58;;;;;;;9.33;9.03;;;3.00;99.90;;;;;;5106277;28;20226;-84
2023/03/17 04:36:27;;;;;;;9.30;9.00;;;3.00;99.90;;;;;;5107870;28;20221;-84
2023/03/17 04:38:56;;;;;;;9.30;9.00;;;3.00;99.90;;;;;;5108298;28;20225;-84
2023/03/17 04:41:26;;;;;;;9.30;9.00;;;3.00;99.90;;;;;;5108805;28;20272;-84
2023/03/17 04:43:55;;;;;;;9.50;9.20;;;2.90;99.90;;;;;;5108940;28;20232;-86
2023/03/17 04:46:25;;;;;;;9.43;9.13;;;2.80;99.90;;;;;;5108269;28;20234;-84
2023/03/17 04:48:56;;;;;;;9.47;9.17;;;2.80;99.90;;;;;;5108968;28;20726;-84
2023/03/17 04:51:25;;;;;;;9.50;9.20;;;2.80;99.90;;;;;;5107154;28;20262;-84
2023/03/17 04:53:54;;;;;;;9.40;9.10;;;2.80;99.90;;;;;;5107479;28;20214;-84
2023/03/17 04:56:23;;;;;;;9.40;9.10;;;2.80;99.90;;;;;;5107326;28;20238;-84
2023/03/17 04:58:52;;;;;;;9.40;9.10;;;2.80;99.90;;;;;;5105346;28;20256;-84
2023/03/17 05:01:22;;;;;;;9.13;8.83;;;2.80;99.90;;;;;;5107211;28;20232;-84
2023/03/17 05:03:51;;;;;;;9.50;9.20;;;2.80;99.90;;;;;;5106270;28;20233;-84
2023/03/17 05:06:29;;;;;;;9.60;9.30;;;2.80;99.90;;;;;;5104400;28;20257;-84
2023/03/17 05:08:58;;;;;;;9.77;9.47;;;2.80;99.90;;;;;;5105228;28;20252;-84
2023/03/17 05:11:28;;;;;;;9.40;9.10;;;2.80;99.90;;;;;;5104803;28;20772;-83
2023/03/17 05:13:57;;;;;;;10.03;9.73;;;2.80;99.90;;;;;;5115431;28;20234;-82
2023/03/17 05:16:27;;;;;;;10.43;10.13;;;2.80;99.90;;;;;;5119088;28;20222;-82
2023/03/17 05:18:56;;;;;;;10.57;10.27;;;2.80;99.90;;;;;;5111759;28;20249;-84
2023/03/17 05:24:33;;;;;;;10.60;10.30;;;2.80;99.90;;;;;;5163694;27;20592;-84
2023/03/17 05:27:02;;;;;;;10.70;10.40;;;2.80;99.90;;;;;;5143997;27;20224;-84
2023/03/17 05:29:30;;;;;;;10.60;10.30;;;2.80;99.90;;;;;;5143602;27;21158;-83
2023/03/17 05:31:59;;;;;;;10.17;9.87;;;2.80;99.90;;;;;;5144336;27;20228;-84
2023/03/17 05:34:28;;;;;;;10.30;10.00;;;2.80;99.90;;;;;;5144353;27;20310;-83
2023/03/17 05:36:57;;;;;;;10.27;9.97;;;2.90;99.90;;;;;;5144366;27;20235;-83
2023/03/17 05:39:28;;;;;;;10.30;10.00;;;2.90;99.90;;;;;;5144322;27;20232;-84
2023/03/17 05:41:59;;;;;;;10.10;9.80;;;2.90;99.90;;;;;;5144853;27;20234;-84
2023/03/17 05:44:27;;;;;;;10.00;9.70;;;2.80;99.90;;;;;;5144635;27;20224;-84
2023/03/17 05:46:58;;;;;;;10.10;9.80;;;2.80;99.90;;;;;;5155475;27;20208;-83
2023/03/17 05:49:26;;;;;;;10.10;9.80;;;2.80;99.90;;;;;;5156571;27;20227;-84
2023/03/17 05:51:54;;;;;;;10.10;9.80;;;2.70;99.90;;;;;;5145407;27;20232;-84
2023/03/17 05:54:23;;;;;;;10.50;10.20;;;2.70;99.90;;;;;;5142413;27;20232;-84
2023/03/17 05:56:55;;;;;;;10.17;9.87;;;2.80;99.90;;;;;;5143133;27;20234;-85
2023/03/17 05:59:25;;;;;;;10.23;9.93;;;2.80;99.90;;;;;;5147393;27;20205;-84
2023/03/17 06:01:53;;;;;;;9.87;9.57;;;2.80;99.90;;;;;;5148855;27;20227;-84
2023/03/17 06:04:25;;;;;;;10.00;9.70;;;2.80;99.90;;;;;;5142355;27;20240;-83
2023/03/17 06:06:52;;;;;;;10.00;9.70;;;2.80;99.90;;;;;;5142735;27;20282;-84
2023/03/17 06:09:22;;;;;;;10.17;9.87;;;2.80;99.90;;;;;;5141378;27;20266;-84
2023/03/17 06:11:51;;;;;;;10.73;10.43;;;2.80;99.90;;;;;;5141256;27;20256;-84
2023/03/17 06:14:21;;;;;;;10.30;10.00;;;2.80;99.90;;;;;;5140746;27;20315;-84
2023/03/17 06:16:59;;;;;;;10.50;10.20;;;2.80;99.90;;;;;;5140703;27;20327;-84
2023/03/17 06:19:28;;;;;;;10.43;10.13;;;2.80;99.90;;;;;;5141631;27;20230;-82
2023/03/17 06:21:58;;;;;;;10.10;9.80;;;2.80;99.90;;;;;;5144022;27;20251;-84
2023/03/17 06:24:27;;;;;;;10.33;10.03;;;2.90;99.90;;;;;;5141962;27;20244;-84
2023/03/17 06:26:57;;;;;;;10.20;9.90;;;2.90;99.90;;;;;;5140492;27;20225;-84
2023/03/17 06:29:27;;;;;;;10.10;9.80;;;3.00;99.90;;;;;;5140416;27;20284;-83
2023/03/17 06:31:59;;;;;;;10.20;9.90;;;3.10;99.90;;;;;;5125318;27;20230;-84
2023/03/17 06:34:26;;;;;;;10.23;9.93;;;3.20;99.90;;;;;;5134841;27;20292;-84
2023/03/17 06:36:55;;;;;;;10.43;10.13;;;3.30;99.90;;;;;;5130725;27;20327;-84
2023/03/17 06:39:25;;;;;;;10.17;9.87;;;3.40;99.90;;;;;;5133362;27;20244;-82
2023/03/17 06:41:54;;;;;;;10.23;9.93;;;3.40;99.90;;;;;;5132414;27;20271;-84
2023/03/17 06:44:23;;;;;;;10.23;9.93;;;3.40;99.90;;;;;;5128859;27;20245;-84
2023/03/17 06:46:52;;;;;;;10.20;9.90;;;3.40;99.90;;;;;;5129064;27;20344;-85
2023/03/17 06:49:33;;;;;;;10.20;9.90;;;3.50;99.90;;;;;;5128009;27;20324;-85
2023/03/17 06:52:00;;;;;;;10.10;9.80;;;3.60;99.90;;;;;;5128938;27;20281;-84
2023/03/17 06:54:31;;;;;;;10.07;9.77;;;3.70;99.90;;;;;;5129108;27;20232;-84
2023/03/17 06:56:59;;;;;;;10.13;9.83;;;3.80;99.90;;;;;;5130674;27;20284;-86
2023/03/17 06:59:29;;;;;;;10.17;9.87;;;3.90;99.90;;;;;;5130469;27;20225;-85
2023/03/17 07:01:58;;;;;;;9.87;9.57;;;3.90;99.90;;;;;;5130330;27;20355;-86
2023/03/17 07:04:38;;;;;;;10.07;9.77;;;4.10;99.90;;;;;;5130014;27;20236;-86
2023/03/17 07:07:06;;;;;;;10.00;9.70;;;4.20;99.90;;;;;;5130328;27;20224;-86
2023/03/17 07:09:35;;;;;;;10.10;9.80;;;4.30;99.90;;;;;;5132687;27;20225;-86
2023/03/17 07:12:04;;;;;;;9.90;9.60;;;4.30;99.90;;;;;;5134231;27;20241;-86
2023/03/17 07:14:34;;;;;;;10.20;9.90;;;4.30;99.90;;;;;;5131887;27;20394;-84
2023/03/17 07:17:03;;;;;;;10.10;9.80;;;4.30;99.90;;;;;;5136218;27;20242;-85
2023/03/17 07:19:44;;;;;;;10.10;9.80;;;4.40;99.90;;;;;;5139155;27;20229;-84
2023/03/17 07:22:13;;;;;;;10.30;10.00;;;4.60;99.90;;;;;;5136268;28;20216;-84
2023/03/17 07:24:42;;;;;;;9.87;9.57;;;4.60;99.90;;;;;;5136734;27;20330;-84
2023/03/17 07:27:10;;;;;;;9.97;9.67;;;4.70;99.90;;;;;;5140636;27;20235;-83
2023/03/17 07:29:40;;;;;;;10.13;9.83;;;4.80;99.90;;;;;;5140857;27;20233;-83
2023/03/17 07:32:09;;;;;;;10.20;9.90;;;4.90;99.90;;;;;;5141179;27;20217;-83
2023/03/17 07:34:50;;;;;;;10.10;9.80;;;4.90;99.90;;;;;;5141228;27;20244;-82
2023/03/17 07:37:18;;;;;;;10.47;10.17;;;5.00;99.90;;;;;;5141777;27;20216;-85
2023/03/17 07:39:47;;;;;;;10.00;9.70;;;5.10;99.90;;;;;;5141386;27;20217;-82
2023/03/17 07:42:16;;;;;;;10.17;9.87;;;5.10;99.90;;;;;;5141420;27;20231;-83
2023/03/17 07:44:44;;;;;;;10.40;10.10;;;5.20;99.90;;;;;;5140171;27;20278;-83
2023/03/17 07:47:15;;;;;;;10.30;10.00;;;5.30;99.90;;;;;;5139434;27;20221;-83
2023/03/17 07:49:46;;;;;;;10.50;10.20;;;5.40;99.90;;;;;;5138237;27;20224;-83
2023/03/17 07:52:14;;;;;;;10.23;9.93;;;5.60;99.90;;;;;;5140199;27;20300;-83
2023/03/17 07:54:43;;;;;;;10.00;9.70;;;5.70;99.90;;;;;;5140817;27;20280;-84
2023/03/17 07:57:11;;;;;;;10.20;9.90;;;5.90;99.90;;;;;;5141471;27;20217;-81
2023/03/17 07:59:41;;;;;;;10.10;9.80;;;6.10;99.90;;;;;;5139292;27;20221;-82
2023/03/17 08:02:21;;;;;;;10.30;10.00;;;6.20;99.90;;;;;;5137864;27;20284;-82
2023/03/17 08:04:55;;;;;;;10.23;9.93;;;6.30;99.90;;;;;;5136735;27;20232;-81
2023/03/17 08:07:23;;;;;;;10.13;9.83;;;6.40;99.90;;;;;;5130167;27;20212;-83
2023/03/17 08:09:51;;;;;;;10.00;9.70;;;6.50;99.90;;;;;;5128886;27;20294;-82
2023/03/17 08:12:19;;;;;;;9.97;9.67;;;6.50;99.90;;;;;;5127885;27;20224;-82
2023/03/17 08:14:49;;;;;;;10.20;9.90;;;6.70;99.90;;;;;;5129372;27;20304;-84
2023/03/17 08:17:18;;;;;;;10.10;9.80;;;6.80;99.90;;;;;;5129552;27;20233;-83
2023/03/17 08:19:47;;;;;;;10.10;9.80;;;7.10;99.90;;;;;;5128636;27;20290;-83
2023/03/17 08:22:28;;;;;;;10.37;10.07;;;7.20;99.90;;;;;;5128607;27;20222;-84
2023/03/17 08:24:55;;;;;;;10.27;9.97;;;7.30;99.90;;;;;;5127812;27;20236;-79
2023/03/17 08:27:25;;;;;;;9.93;9.63;;;7.40;99.90;;;;;;5129652;27;20236;-90
2023/03/17 08:30:05;;;;;;;9.90;9.60;;;7.50;99.90;;;;;;5130454;27;20212;-91
2023/03/17 08:32:42;;;;;;;10.23;9.93;;;7.60;99.90;;;;;;5132256;27;20260;-89
2023/03/17 08:35:14;;;;;;;9.80;9.50;;;7.60;99.90;;;;;;5129699;27;20229;-89
2023/03/17 08:37:51;;;;;;;9.60;9.30;;;7.70;99.90;;;;;;5129901;27;20231;-88
2023/03/17 08:40:19;;;;;;;9.77;9.47;;;7.80;99.90;;;;;;5119276;27;20244;-86
2023/03/17 08:42:50;;;;;;;10.10;9.80;;;7.90;99.90;;;;;;5110010;28;20268;-85
2023/03/17 08:45:18;;;;;;;10.17;9.87;;;8.00;99.90;;;;;;5124427;27;20258;-85
2023/03/17 08:47:47;;;;;;;10.30;10.00;;;8.10;99.90;;;;;;5124941;27;20233;-84
2023/03/17 08:50:25;;;;;;;10.53;10.23;;;8.30;99.90;;;;;;5126087;27;20217;-82
2023/03/17 08:55:42;;;;;;;10.17;9.87;;;8.50;99.90;;;;;;5125037;27;20232;-85
2023/03/17 08:58:11;;;;;;;10.20;9.90;;;8.70;99.90;;;;;;5126612;27;20244;-85
2023/03/17 09:00:41;;;;;;;10.30;10.00;;;8.80;99.90;;;;;;5124682;27;20217;-85
2023/03/17 09:03:10;;;;;;;10.10;9.80;;;9.00;99.90;;;;;;5127194;27;20286;-85
2023/03/17 09:05:40;;;;;;;10.10;9.80;;;9.20;99.90;;;;;;5123130;27;20248;-83
2023/03/17 09:08:20;;;;;;;10.07;9.77;;;9.50;99.90;;;;;;5123886;27;20240;-83
2023/03/17 09:10:48;;;;;;;9.97;9.67;;;9.80;99.90;;;;;;5125238;27;20231;-83
2023/03/17 09:13:16;;;;;;;10.00;9.70;;;9.90;99.90;;;;;;5125564;27;20243;-82
2023/03/17 09:15:57;;;;;;;10.00;9.70;;;9.90;99.90;;;;;;5136390;27;20217;-89
2023/03/17 09:18:25;;;;;;;9.60;9.30;;;10.00;99.90;;;;;;5133650;27;20231;-85
2023/03/17 09:20:53;;;;;;;10.07;9.77;;;10.10;99.90;;;;;;5126051;27;20213;-87
2023/03/17 09:23:32;;;;;;;9.87;9.57;;;10.30;99.90;;;;;;5124020;27;20232;-88
2023/03/17 09:26:02;;;;;;;9.87;9.57;;;10.50;99.90;;;;;;5128195;27;20220;-86
2023/03/17 09:28:30;;;;;;;9.93;9.63;;;10.40;99.90;;;;;;5138073;27;20225;-85
2023/03/17 09:31:01;;;;;;;10.60;10.30;;;10.40;99.90;;;;;;5132197;27;20236;-87
2023/03/17 09:33:29;;;;;;;10.20;9.90;;;10.40;99.90;;;;;;5124464;27;20229;-86
2023/03/17 09:36:09;;;;;;;10.30;10.00;;;10.60;99.90;;;;;;5124537;27;20240;-87
2023/03/17 09:38:46;;;;;;;10.47;10.17;;;10.70;99.90;;;;;;5124103;27;20220;-87
2023/03/17 09:41:55;;;;;;;9.80;9.50;;;10.80;99.90;;;;;;5123795;27;20319;-86
2023/03/17 09:47:53;;;;;;;9.57;9.27;;;11.00;99.90;;;;;;5135040;27;20277;-87
2023/03/17 09:50:28;;;;;;;10.07;9.77;;;11.20;99.90;;;;;;5123001;27;20291;-86
2023/03/17 09:52:58;;;;;;;10.10;9.80;;;11.30;99.90;;;;;;5124637;27;20228;-87
2023/03/17 09:55:36;;;;;;;10.03;9.73;;;11.60;99.90;;;;;;5124684;27;20282;-88
2023/03/17 09:58:06;;;;;;;9.90;9.60;;;11.80;99.90;;;;;;5123733;27;20233;-87
2023/03/17 10:00:36;;;;;;;9.90;9.60;;;11.90;99.90;;;;;;5124006;27;20227;-87
2023/03/17 10:03:08;;;;;;;10.30;10.00;;;12.10;99.90;;;;;;5124484;27;20224;-89
2023/03/17 10:05:37;;;;;;;10.43;10.13;;;12.30;99.90;;;;;;5124576;27;20255;-86
2023/03/17 10:08:15;;;;;;;10.50;10.20;;;12.10;99.90;;;;;;5122801;28;20225;-88
2023/03/17 10:11:01;;;;;;;10.40;10.10;;;11.90;99.90;;;;;;5128155;27;20232;-82
2023/03/17 10:13:48;;;;;;;10.30;10.00;;;12.10;99.90;;;;;;5128401;27;20232;-82
2023/03/17 10:16:20;;;;;;;10.30;10.00;;;12.30;99.90;;;;;;5130199;27;20228;-87
2023/03/17 10:18:56;;;;;;;10.53;10.23;;;12.30;99.90;;;;;;5127917;27;20231;-86
2023/03/17 10:21:34;;;;;;;10.37;10.07;;;12.50;99.90;;;;;;5127846;27;20221;-87
2023/03/17 10:24:05;;;;;;;10.23;9.93;;;12.50;99.90;;;;;;5126488;27;20234;-87
2023/03/17 10:26:44;;;;;;;9.90;9.60;;;12.70;99.90;;;;;;5126713;27;20229;-88
2023/03/17 10:29:24;;;;;;;10.10;9.80;;;12.90;99.90;;;;;;5129880;27;20231;-87
2023/03/17 10:34:38;;;;;;;10.10;9.80;;;13.10;99.90;;;;;;5127090;27;20228;-85
2023/03/17 10:37:15;;;;;;;9.97;9.67;;;13.30;99.90;;;;;;5126458;27;20221;-86
2023/03/17 10:39:46;;;;;;;10.00;9.70;;;13.60;99.90;;;;;;5132960;28;20228;-85
2023/03/17 10:42:25;;;;;;;10.50;10.20;;;13.80;99.90;;;;;;5140549;27;20232;-86
2023/03/17 10:45:02;;;;;;;10.37;10.07;;;14.10;99.90;;;;;;5141640;27;20243;-85
2023/03/17 10:47:39;;;;;;;10.67;10.37;;;14.40;99.90;;;;;;5137835;27;20229;-87
2023/03/17 10:50:27;;;;;;;10.30;10.00;;;14.80;99.90;;;;;;5127441;27;20236;-85
2023/03/17 10:53:01;;;;;;;10.30;10.00;;;14.80;99.90;;;;;;5126221;28;20224;-84
2023/03/17 10:55:34;;;;;;;10.70;10.40;;;14.60;99.90;;;;;;5125761;27;20326;-84
2023/03/17 10:58:12;;;;;;;10.30;10.00;;;14.50;99.90;;;;;;5128704;28;20225;-85
2023/03/17 11:01:02;;;;;;;10.60;10.30;;;14.60;99.90;;;;;;5126898;27;20224;-87
2023/03/17 11:03:38;;;;;;;10.70;10.40;;;14.60;99.90;;;;;;5128392;27;20262;-88
2023/03/17 11:09:21;;;;;;;10.70;10.40;;;14.80;99.90;;;;;;5137517;27;20213;-88
2023/03/17 11:12:07;;;;;;;10.93;10.63;;;15.20;99.90;;;;;;5130185;27;20232;-87
2023/03/17 11:14:48;;;;;;;10.80;10.50;;;15.50;99.90;;;;;;5125868;27;20263;-88
2023/03/17 11:17:35;;;;;;;10.82;10.52;;;15.60;99.90;;;;;;5126298;27;20225;-86
2023/03/17 11:20:28;;;;;;;10.85;10.55;;;15.70;99.90;;;;;;5124602;27;20228;-86
2023/03/17 11:23:07;;;;;;;10.70;10.40;;;16.20;99.90;;;;;;5124594;27;20229;-84
2023/03/17 11:25:44;;;;;;;10.20;9.90;;;16.40;99.90;;;;;;5132262;27;20247;-89
2023/03/17 11:28:24;;;;;;;10.38;10.07;;;16.20;99.90;;;;;;5126272;28;20241;-87
2023/03/17 11:31:06;;;;;;;10.23;9.93;;;16.30;99.90;;;;;;5127859;27;20220;-88
2023/03/17 11:33:49;;;;;;;10.35;10.05;;;15.90;99.90;;;;;;5126700;27;20236;-85
2023/03/17 11:36:43;;;;;;;10.45;10.15;;;15.90;99.90;;;;;;5124932;27;20232;-86
2023/03/17 11:39:23;;;;;;;10.70;10.40;;;16.00;99.90;;;;;;5125281;27;20319;-88
2023/03/17 11:42:09;;;;;;;10.43;10.13;;;16.40;99.90;;;;;;5125063;27;20205;-85
2023/03/17 11:45:08;;;;;;;10.73;10.43;;;16.90;99.90;;;;;;5126634;27;20232;-85
2023/03/17 11:48:20;;;;;;;10.95;10.65;;;17.30;99.90;;;;;;5125461;27;20289;-89
2023/03/17 11:51:00;;;;;;;11.07;10.77;;;17.50;99.90;;;;;;5126917;27;20232;-85
2023/03/17 11:53:52;;;;;;;10.85;10.55;;;17.30;99.90;;;;;;5125886;27;20225;-86
2023/03/17 11:56:39;;;;;;;10.88;10.57;;;17.40;99.90;;;;;;5124043;27;20235;-85
2023/03/17 11:59:28;;;;;;;10.30;10.00;;;17.60;99.90;;;;;;5125034;27;20232;-85
2023/03/17 12:02:05;;;;;;;10.40;10.10;;;17.80;99.90;;;;;;5126337;27;20225;-85
2023/03/17 12:04:54;;;;;;;10.90;10.60;;;17.50;99.90;;;;;;5126961;27;20294;-84
2023/03/17 12:10:21;;;;;;;10.70;10.40;;;17.20;99.90;;;;;;5135611;28;20317;-79
2023/03/17 12:12:57;;;;;;;10.90;10.60;;;17.50;99.90;;;;;;5130350;27;20260;-80
2023/03/17 12:15:35;;;;;;;10.60;10.30;;;17.70;99.90;;;;;;5128724;27;20240;-80
2023/03/17 12:18:11;;;;;;;10.57;10.27;;;18.30;99.90;;;;;;5128665;27;20323;-79
2023/03/17 12:20:51;;;;;;;10.73;10.43;;;18.80;99.90;;;;;;5127474;27;20235;-80
2023/03/17 12:23:32;;;;;;;10.80;10.50;;;18.90;99.90;;;;;;5127287;27;20327;-81
2023/03/17 12:26:09;;;;;;;10.35;10.05;;;19.20;99.90;;;;;;5126762;27;20227;-82
2023/03/17 12:28:48;;;;;;;10.50;10.20;;;18.70;99.90;;;;;;5126455;27;20225;-81
2023/03/17 12:31:25;;;;;;;10.68;10.38;;;18.10;99.90;;;;;;5127288;27;20279;-82
2023/03/17 12:34:05;;;;;;;10.60;10.30;;;18.20;99.90;;;;;;5126474;27;20229;-80
2023/03/17 12:36:41;;;;;;;10.70;10.40;;;18.40;99.90;;;;;;5126104;27;20374;-81
2023/03/17 12:39:19;;;;;;;10.70;10.40;;;18.60;99.90;;;;;;5125495;28;20232;-81
2023/03/17 12:42:09;;;;;;;10.88;10.57;;;18.70;99.90;;;;;;5126543;27;20354;-80
2023/03/17 12:45:05;;;;;;;10.73;10.43;;;18.90;99.90;;;;;;5128416;27;20231;-80
2023/03/17 12:48:17;;;;;;;10.60;10.30;;;19.00;99.90;;;;;;5136865;27;20225;-80
2023/03/17 12:51:24;;;;;;;10.57;10.27;;;18.80;99.90;;;;;;5099780;27;20292;-79
2023/03/17 12:54:01;;;;;;;10.20;9.90;;;18.60;99.90;;;;;;5124460;27;20284;-83
2023/03/17 12:56:31;;;;;;;10.30;10.00;;;18.60;99.90;;;;;;5121441;27;20240;-77
2023/03/17 12:59:07;;;;;;;10.60;10.30;;;18.90;99.90;;;;;;5119765;27;20228;-78
2023/03/17 13:01:45;;;;;;;10.38;10.07;;;19.40;99.90;;;;;;5119760;28;20236;-78
2023/03/17 13:04:22;;;;;;;10.38;10.07;;;19.90;99.90;;;;;;5119302;27;20267;-79
2023/03/17 13:07:01;;;;;;;10.43;10.13;;;19.70;99.90;;;;;;5118460;27;20271;-81
2023/03/17 13:09:49;;;;;;;10.85;10.55;;;19.60;99.90;;;;;;5121534;27;20327;-80
2023/03/17 13:13:02;;;;;;;10.50;10.20;;;19.10;99.90;;;;;;5121424;27;20232;-83
2023/03/17 13:15:59;;;;;;;10.85;10.55;;;19.00;99.90;;;;;;5112250;27;20239;-82
2023/03/17 13:19:27;;;;;;;10.85;10.55;;;19.50;99.90;;;;;;5118984;27;20232;-83
2023/03/17 13:22:34;;;;;;;11.07;10.77;;;20.10;99.90;;;;;;5122325;27;20250;-80
2023/03/17 13:25:30;;;;;;;10.82;10.52;;;20.60;99.90;;;;;;5123118;27;20235;-82
2023/03/17 13:28:24;;;;;;;11.07;10.77;;;20.90;99.90;;;;;;5125091;27;20224;-83
2023/03/17 13:31:11;;;;;;;11.05;10.75;;;21.00;99.90;;;;;;5125576;27;20284;-82
2023/03/17 13:33:49;;;;;;;10.88;10.57;;;20.70;99.90;;;;;;5131476;27;20235;-82
2023/03/17 13:36:37;;;;;;;11.27;10.98;;;20.40;99.90;;;;;;5129152;27;20240;-82
2023/03/17 13:39:41;;;;;;;11.05;10.75;;;20.00;99.90;;;;;;5128883;27;20235;-82
2023/03/17 13:42:36;;;;;;;11.07;10.77;;;19.60;99.90;;;;;;5128522;27;20220;-83
2023/03/17 13:45:21;;;;;;;10.77;10.48;;;19.50;99.90;;;;;;5127583;27;20259;-83
2023/03/17 13:47:54;;;;;;;10.88;10.57;;;19.40;99.90;;;;;;5127480;27;20232;-83